Time;durP1;ratioP1;P1;durP2;ratioP2;P2;SDS_P1;SDS_P2;PMS_P1;PMS_P2;Temp;Humidity;BMP_temperature;BMP_pressure;BME280_temperature;BME280_humidity;BME280_pressure;Samples;Min_cycle;Max_cycle;Signal;HPM_P1;HPM_P2
2021/12/26 00:01:22;;;;;;;5.23;2.40;;;;;;;;;;5051702;28;20377;-61
2021/12/26 00:03:48;;;;;;;5.60;1.93;;;;;;;;;;5073132;28;20290;-61
2021/12/26 00:06:16;;;;;;;5.30;1.47;;;;;;;;;;5071635;28;20293;-62
2021/12/26 00:08:43;;;;;;;5.13;1.80;;;;;;;;;;5087898;28;20286;-61
2021/12/26 00:11:10;;;;;;;5.63;1.67;;;;;;;;;;5088855;28;20656;-61
2021/12/26 00:13:36;;;;;;;9.33;2.07;;;;;;;;;;5089444;28;20381;-61
2021/12/26 00:16:03;;;;;;;7.17;1.97;;;;;;;;;;5092232;28;20282;-62
2021/12/26 00:18:29;;;;;;;4.40;1.93;;;;;;;;;;5089719;28;20820;-61
2021/12/26 00:20:55;;;;;;;6.60;2.30;;;;;;;;;;5088156;28;20861;-61
2021/12/26 00:23:21;;;;;;;3.83;2.03;;;;;;;;;;5093461;28;20282;-61
2021/12/26 00:25:47;;;;;;;4.07;1.90;;;;;;;;;;5093196;28;20278;-61
2021/12/26 00:28:14;;;;;;;3.40;1.70;;;;;;;;;;5087086;28;20651;-62
2021/12/26 00:30:40;;;;;;;3.77;1.37;;;;;;;;;;5093178;28;20771;-62
2021/12/26 00:33:06;;;;;;;5.27;1.90;;;;;;;;;;5093202;28;20795;-61
2021/12/26 00:35:32;;;;;;;5.23;1.57;;;;;;;;;;5091243;28;20293;-61
2021/12/26 00:37:58;;;;;;;2.83;1.30;;;;;;;;;;5092532;28;20763;-61
2021/12/26 00:40:26;;;;;;;6.03;2.40;;;;;;;;;;5093049;28;20326;-61
2021/12/26 00:42:53;;;;;;;4.27;1.73;;;;;;;;;;5092162;28;20062;-61
2021/12/26 00:45:19;;;;;;;2.50;1.40;;;;;;;;;;5084508;28;20816;-61
2021/12/26 00:47:45;;;;;;;5.53;2.07;;;;;;;;;;5072479;28;20287;-61
2021/12/26 00:50:13;;;;;;;3.63;1.50;;;;;;;;;;5072491;28;20638;-61
2021/12/26 00:52:39;;;;;;;4.20;1.50;;;;;;;;;;5072720;28;20285;-61
2021/12/26 00:55:06;;;;;;;6.50;2.27;;;;;;;;;;5072200;28;20282;-61
2021/12/26 00:57:33;;;;;;;2.97;1.60;;;;;;;;;;5072530;28;20275;-61
2021/12/26 00:59:59;;;;;;;3.33;1.83;;;;;;;;;;5072071;28;20310;-61
2021/12/26 01:02:25;;;;;;;4.97;1.80;;;;;;;;;;5089037;28;20339;-61
2021/12/26 01:04:51;;;;;;;3.27;1.37;;;;;;;;;;5072608;28;20396;-61
2021/12/26 01:07:42;;;;;;;5.73;2.10;;;;;;;;;;5072529;28;20287;-61
2021/12/26 01:10:09;;;;;;;3.77;1.80;;;;;;;;;;5072422;28;20344;-61
2021/12/26 01:12:36;;;;;;;2.77;1.07;;;;;;;;;;5077857;28;20340;-62
2021/12/26 01:15:08;;;;;;;4.40;1.83;;;;;;;;;;5092329;28;20282;-61
2021/12/26 01:17:35;;;;;;;5.93;1.40;;;;;;;;;;5071586;28;20370;-61
2021/12/26 01:20:03;;;;;;;4.67;1.60;;;;;;;;;;5089955;28;20684;-61
2021/12/26 01:22:29;;;;;;;3.47;1.57;;;;;;;;;;5073285;28;20638;-61
2021/12/26 01:24:56;;;;;;;2.77;1.47;;;;;;;;;;5074052;28;20286;-61
2021/12/26 01:27:23;;;;;;;4.60;1.97;;;;;;;;;;5091226;28;20094;-63
2021/12/26 01:29:49;;;;;;;4.30;2.03;;;;;;;;;;5091608;28;20283;-62
2021/12/26 01:32:15;;;;;;;4.00;1.60;;;;;;;;;;5071551;28;20283;-61
2021/12/26 01:34:41;;;;;;;3.57;1.30;;;;;;;;;;5083029;28;20294;-62
2021/12/26 01:37:07;;;;;;;3.97;1.60;;;;;;;;;;5071980;28;20383;-61
2021/12/26 01:39:33;;;;;;;6.43;1.70;;;;;;;;;;5091041;28;20389;-61
2021/12/26 01:42:02;;;;;;;2.67;1.27;;;;;;;;;;5091537;28;20850;-62
2021/12/26 01:44:28;;;;;;;4.70;1.53;;;;;;;;;;5091547;28;20331;-62
2021/12/26 01:46:54;;;;;;;3.50;1.67;;;;;;;;;;5071723;28;20374;-62
2021/12/26 01:49:22;;;;;;;4.53;1.80;;;;;;;;;;5083759;28;20365;-62
2021/12/26 01:51:49;;;;;;;3.50;1.73;;;;;;;;;;5091221;28;20294;-61
2021/12/26 01:54:26;;;;;;;3.67;1.60;;;;;;;;;;5091460;28;20438;-62
2021/12/26 01:56:52;;;;;;;5.17;1.83;;;;;;;;;;5091467;28;20363;-62
2021/12/26 01:59:18;;;;;;;7.83;2.10;;;;;;;;;;5090902;28;20872;-62
2021/12/26 02:01:44;;;;;;;5.00;1.80;;;;;;;;;;5091265;28;20286;-62
2021/12/26 02:04:11;;;;;;;3.17;1.20;;;;;;;;;;5091345;28;20044;-62
2021/12/26 02:06:37;;;;;;;5.00;1.43;;;;;;;;;;5090897;28;20347;-62
2021/12/26 02:09:03;;;;;;;2.83;1.37;;;;;;;;;;5091345;28;20817;-62
2021/12/26 02:11:29;;;;;;;5.00;1.47;;;;;;;;;;5090488;28;20660;-61
2021/12/26 02:13:55;;;;;;;5.27;1.63;;;;;;;;;;5091117;28;20282;-62
2021/12/26 02:16:23;;;;;;;4.43;1.43;;;;;;;;;;5091273;28;20266;-61
2021/12/26 02:18:49;;;;;;;5.63;2.37;;;;;;;;;;5087439;28;20317;-62
2021/12/26 02:21:36;;;;;;;4.90;1.83;;;;;;;;;;5069382;28;20304;-61
2021/12/26 02:24:17;;;;;;;5.67;1.50;;;;;;;;;;5070623;28;20468;-62
2021/12/26 02:29:27;;;;;;;3.63;1.73;;;;;;;;;;5090979;28;20283;-61
2021/12/26 02:31:54;;;;;;;5.53;1.87;;;;;;;;;;5091008;28;20312;-62
2021/12/26 02:34:20;;;;;;;4.70;1.40;;;;;;;;;;5072542;28;20285;-62
2021/12/26 02:36:46;;;;;;;3.17;1.50;;;;;;;;;;5089943;28;20286;-62
2021/12/26 02:39:12;;;;;;;3.93;1.73;;;;;;;;;;5090567;28;20310;-61
2021/12/26 02:41:38;;;;;;;4.03;1.73;;;;;;;;;;5090689;28;20278;-62
2021/12/26 02:44:05;;;;;;;5.53;2.27;;;;;;;;;;5085518;28;20282;-62
2021/12/26 02:46:31;;;;;;;3.83;1.47;;;;;;;;;;5090466;28;20611;-62
2021/12/26 02:48:57;;;;;;;4.90;1.50;;;;;;;;;;5089762;28;20838;-62
2021/12/26 02:51:23;;;;;;;4.70;1.97;;;;;;;;;;5086061;28;20294;-61
2021/12/26 02:53:49;;;;;;;6.50;1.93;;;;;;;;;;5074507;28;20286;-62
2021/12/26 02:56:16;;;;;;;3.33;1.20;;;;;;;;;;5070178;28;20042;-62
2021/12/26 02:58:43;;;;;;;4.77;2.37;;;;;;;;;;5070367;28;20310;-61
2021/12/26 03:01:11;;;;;;;4.67;1.50;;;;;;;;;;5081626;28;20294;-61
2021/12/26 03:03:37;;;;;;;7.33;1.73;;;;;;;;;;5089249;28;20286;-61
2021/12/26 03:06:08;;;;;;;2.67;1.70;;;;;;;;;;5072070;28;20290;-62
2021/12/26 03:08:34;;;;;;;5.17;1.53;;;;;;;;;;5072149;28;20298;-61
2021/12/26 03:11:00;;;;;;;5.30;2.30;;;;;;;;;;5089444;28;20294;-61
2021/12/26 03:13:26;;;;;;;3.37;1.40;;;;;;;;;;5089664;28;20858;-62
2021/12/26 03:15:52;;;;;;;4.07;1.70;;;;;;;;;;5089338;28;20393;-61
2021/12/26 03:18:19;;;;;;;4.47;1.30;;;;;;;;;;5076111;28;20298;-62
2021/12/26 03:20:48;;;;;;;3.10;1.63;;;;;;;;;;5089437;28;20297;-62
2021/12/26 03:23:17;;;;;;;4.70;1.83;;;;;;;;;;5089905;28;20369;-62
2021/12/26 03:25:43;;;;;;;2.70;1.53;;;;;;;;;;5081752;28;20325;-62
2021/12/26 03:28:10;;;;;;;2.97;1.40;;;;;;;;;;5090200;28;20289;-62
2021/12/26 03:30:37;;;;;;;6.23;1.93;;;;;;;;;;5090086;28;20363;-61
2021/12/26 03:33:05;;;;;;;4.77;2.40;;;;;;;;;;5085953;28;20297;-62
2021/12/26 03:35:31;;;;;;;4.37;2.13;;;;;;;;;;5073075;28;20294;-61
2021/12/26 03:37:58;;;;;;;3.47;1.53;;;;;;;;;;5069310;28;20290;-61
2021/12/26 03:40:24;;;;;;;4.23;1.83;;;;;;;;;;5077070;28;20286;-62
2021/12/26 03:42:51;;;;;;;3.77;2.07;;;;;;;;;;5081357;28;20641;-62
2021/12/26 03:45:18;;;;;;;5.33;2.00;;;;;;;;;;5077580;28;20291;-62
2021/12/26 03:47:48;;;;;;;4.30;1.87;;;;;;;;;;5075066;28;20289;-62
2021/12/26 03:50:15;;;;;;;3.90;1.70;;;;;;;;;;5089710;28;20630;-62
2021/12/26 03:52:41;;;;;;;4.97;2.00;;;;;;;;;;5067306;28;20912;-61
2021/12/26 03:55:07;;;;;;;4.43;1.87;;;;;;;;;;5090603;28;20633;-61
2021/12/26 03:57:33;;;;;;;5.27;2.40;;;;;;;;;;5093199;28;20298;-62
2021/12/26 03:59:59;;;;;;;4.80;1.90;;;;;;;;;;5076850;28;20688;-62
2021/12/26 04:02:25;;;;;;;3.33;1.90;;;;;;;;;;5092992;28;20623;-62
2021/12/26 04:04:51;;;;;;;6.13;1.97;;;;;;;;;;5081320;28;20293;-61
2021/12/26 04:07:17;;;;;;;3.50;1.70;;;;;;;;;;5085077;28;20294;-62
2021/12/26 04:09:43;;;;;;;2.70;1.40;;;;;;;;;;5082349;28;20823;-61
2021/12/26 04:12:10;;;;;;;5.37;2.37;;;;;;;;;;5082565;28;20293;-61
2021/12/26 04:14:36;;;;;;;2.90;1.40;;;;;;;;;;5081706;28;20278;-62
2021/12/26 04:17:02;;;;;;;4.70;2.50;;;;;;;;;;5084783;28;20339;-62
2021/12/26 04:19:28;;;;;;;4.27;1.90;;;;;;;;;;5079648;28;20136;-61
2021/12/26 04:21:54;;;;;;;2.73;1.40;;;;;;;;;;5082077;28;20384;-61
2021/12/26 04:24:20;;;;;;;7.87;2.50;;;;;;;;;;5092630;28;20036;-61
2021/12/26 04:26:46;;;;;;;6.43;2.57;;;;;;;;;;5076826;28;20040;-62
2021/12/26 04:29:12;;;;;;;4.43;2.13;;;;;;;;;;5067409;28;20283;-61
2021/12/26 04:31:38;;;;;;;5.77;2.30;;;;;;;;;;5089201;28;20644;-62
2021/12/26 04:34:04;;;;;;;4.97;2.23;;;;;;;;;;5079483;28;20040;-61
2021/12/26 04:36:30;;;;;;;8.13;2.17;;;;;;;;;;5085413;28;20298;-61
2021/12/26 04:38:56;;;;;;;3.60;1.87;;;;;;;;;;5083985;28;20314;-62
2021/12/26 04:41:22;;;;;;;4.73;2.07;;;;;;;;;;5083740;28;20287;-61
2021/12/26 04:43:48;;;;;;;4.43;1.90;;;;;;;;;;5079544;28;20894;-61
2021/12/26 04:46:15;;;;;;;5.70;1.93;;;;;;;;;;5091132;28;20286;-61
2021/12/26 04:48:42;;;;;;;7.63;2.40;;;;;;;;;;5089935;28;20320;-61
2021/12/26 04:51:09;;;;;;;4.30;2.23;;;;;;;;;;5085544;28;20299;-62
2021/12/26 04:53:36;;;;;;;4.20;1.93;;;;;;;;;;5089966;28;20294;-62
2021/12/26 04:56:02;;;;;;;4.33;2.20;;;;;;;;;;5083914;28;20293;-62
2021/12/26 04:58:28;;;;;;;8.07;2.13;;;;;;;;;;5080477;28;20327;-62
2021/12/26 05:00:54;;;;;;;5.33;1.90;;;;;;;;;;5082880;28;20294;-63
2021/12/26 05:03:20;;;;;;;5.80;2.43;;;;;;;;;;5091810;28;20286;-63
2021/12/26 05:05:46;;;;;;;5.20;1.97;;;;;;;;;;5084159;28;20290;-62
2021/12/26 05:08:13;;;;;;;6.10;2.27;;;;;;;;;;5091897;28;20448;-62
2021/12/26 05:10:39;;;;;;;5.83;2.17;;;;;;;;;;5083179;28;20380;-63
2021/12/26 05:13:06;;;;;;;5.43;2.03;;;;;;;;;;5092025;28;20764;-62
2021/12/26 05:15:32;;;;;;;6.97;2.67;;;;;;;;;;5083654;28;20381;-62
2021/12/26 05:17:59;;;;;;;8.27;2.53;;;;;;;;;;5079855;28;20333;-62
2021/12/26 05:20:26;;;;;;;4.13;2.00;;;;;;;;;;5073017;28;20428;-62
2021/12/26 05:22:53;;;;;;;5.97;2.33;;;;;;;;;;5079856;28;20299;-62
2021/12/26 05:25:19;;;;;;;6.83;2.47;;;;;;;;;;5080578;28;20638;-62
2021/12/26 05:27:45;;;;;;;4.70;2.03;;;;;;;;;;5089487;28;20318;-63
2021/12/26 05:30:13;;;;;;;5.97;2.33;;;;;;;;;;5092155;28;20316;-62
2021/12/26 05:32:40;;;;;;;5.63;2.80;;;;;;;;;;5091462;28;20286;-62
2021/12/26 05:35:07;;;;;;;5.93;2.53;;;;;;;;;;5089554;28;20294;-62
2021/12/26 05:37:33;;;;;;;5.93;2.73;;;;;;;;;;5090850;28;20286;-62
2021/12/26 05:40:02;;;;;;;5.53;2.47;;;;;;;;;;5082679;28;20311;-62
2021/12/26 05:42:28;;;;;;;4.60;2.30;;;;;;;;;;5070248;28;20302;-62
2021/12/26 05:44:54;;;;;;;4.87;2.20;;;;;;;;;;5079635;28;20278;-63
2021/12/26 05:47:20;;;;;;;6.50;2.50;;;;;;;;;;5067215;28;20289;-62
2021/12/26 05:49:46;;;;;;;4.47;2.13;;;;;;;;;;5090610;28;20365;-62
2021/12/26 05:52:12;;;;;;;5.53;2.33;;;;;;;;;;5071271;28;20676;-62
2021/12/26 05:54:38;;;;;;;5.33;2.37;;;;;;;;;;5091739;28;20895;-62
2021/12/26 05:57:04;;;;;;;6.40;2.60;;;;;;;;;;5082924;28;20366;-64
2021/12/26 05:59:31;;;;;;;4.37;2.40;;;;;;;;;;5083635;28;20815;-62
2021/12/26 06:01:57;;;;;;;7.13;2.87;;;;;;;;;;5083501;28;20411;-63
2021/12/26 06:04:24;;;;;;;5.00;2.57;;;;;;;;;;5090211;28;20842;-63
2021/12/26 06:06:50;;;;;;;5.87;3.03;;;;;;;;;;5085957;28;20294;-62
2021/12/26 06:09:16;;;;;;;8.03;2.77;;;;;;;;;;5078858;28;20848;-62
2021/12/26 06:11:42;;;;;;;6.30;3.17;;;;;;;;;;5090499;28;20286;-62
2021/12/26 06:14:08;;;;;;;4.27;2.83;;;;;;;;;;5087310;28;20355;-62
2021/12/26 06:16:34;;;;;;;8.10;2.47;;;;;;;;;;5080573;28;20290;-62
2021/12/26 06:19:00;;;;;;;5.17;2.63;;;;;;;;;;5078756;28;20531;-62
2021/12/26 06:21:26;;;;;;;5.20;2.43;;;;;;;;;;5063178;28;20381;-63
2021/12/26 06:23:53;;;;;;;6.07;3.40;;;;;;;;;;5080600;28;20293;-64
2021/12/26 06:26:19;;;;;;;6.10;2.33;;;;;;;;;;5082813;28;20291;-62
2021/12/26 06:28:45;;;;;;;4.20;2.17;;;;;;;;;;5063092;28;20373;-62
2021/12/26 06:31:11;;;;;;;7.63;2.93;;;;;;;;;;5081748;28;20370;-62
2021/12/26 06:33:38;;;;;;;5.03;2.70;;;;;;;;;;5081361;28;20290;-62
2021/12/26 06:36:04;;;;;;;8.23;2.50;;;;;;;;;;5091143;28;20297;-62
2021/12/26 06:38:31;;;;;;;4.27;2.73;;;;;;;;;;5090940;28;20321;-63
2021/12/26 06:40:58;;;;;;;8.20;2.73;;;;;;;;;;5091199;28;21261;-62
2021/12/26 06:43:24;;;;;;;4.20;2.13;;;;;;;;;;5090824;28;20369;-62
2021/12/26 06:45:50;;;;;;;5.27;2.53;;;;;;;;;;5090248;28;20360;-63
2021/12/26 06:48:16;;;;;;;5.87;2.73;;;;;;;;;;5070335;28;20301;-62
2021/12/26 06:50:44;;;;;;;6.03;3.30;;;;;;;;;;5083804;28;20286;-62
2021/12/26 06:53:11;;;;;;;5.17;2.60;;;;;;;;;;5085852;28;20319;-62
2021/12/26 06:55:37;;;;;;;6.90;3.10;;;;;;;;;;5084510;28;20306;-62
2021/12/26 06:58:03;;;;;;;4.40;2.30;;;;;;;;;;5084372;28;20388;-63
2021/12/26 07:00:29;;;;;;;6.20;2.77;;;;;;;;;;5090163;28;20293;-62
2021/12/26 07:02:55;;;;;;;8.83;2.97;;;;;;;;;;5085629;28;20368;-62
2021/12/26 07:05:22;;;;;;;5.00;2.67;;;;;;;;;;5090267;28;20318;-62
2021/12/26 07:07:48;;;;;;;7.13;3.60;;;;;;;;;;5090210;28;20109;-62
2021/12/26 07:10:14;;;;;;;6.30;2.73;;;;;;;;;;5090497;28;20283;-63
2021/12/26 07:12:40;;;;;;;6.33;2.93;;;;;;;;;;5090626;28;20281;-62
2021/12/26 07:15:07;;;;;;;7.57;2.73;;;;;;;;;;5085740;28;20283;-63
2021/12/26 07:17:33;;;;;;;6.77;3.03;;;;;;;;;;5083525;28;20298;-63
2021/12/26 07:19:59;;;;;;;5.33;2.47;;;;;;;;;;5089519;28;20381;-62
2021/12/26 07:22:25;;;;;;;9.00;3.17;;;;;;;;;;5087588;28;20306;-62
2021/12/26 07:24:51;;;;;;;6.40;3.33;;;;;;;;;;5087025;28;20703;-63
2021/12/26 07:27:18;;;;;;;8.10;2.97;;;;;;;;;;5089780;28;20301;-62
2021/12/26 07:29:44;;;;;;;6.37;2.63;;;;;;;;;;5087045;28;20799;-62
2021/12/26 07:32:10;;;;;;;5.97;2.60;;;;;;;;;;5089205;28;20324;-62
2021/12/26 07:34:37;;;;;;;6.50;3.00;;;;;;;;;;5088157;28;20369;-63
2021/12/26 07:37:03;;;;;;;8.87;3.63;;;;;;;;;;5076094;28;20700;-62
2021/12/26 07:39:29;;;;;;;6.30;2.83;;;;;;;;;;5068601;28;20338;-62
2021/12/26 07:41:55;;;;;;;7.23;3.20;;;;;;;;;;5069235;28;21258;-62
2021/12/26 07:44:21;;;;;;;8.17;3.73;;;;;;;;;;5069467;28;20279;-62
2021/12/26 07:46:49;;;;;;;6.73;2.87;;;;;;;;;;5073094;28;20366;-63
2021/12/26 07:49:15;;;;;;;8.53;3.20;;;;;;;;;;5071499;28;20373;-63
2021/12/26 07:51:43;;;;;;;7.07;3.53;;;;;;;;;;5089635;28;20325;-62
2021/12/26 07:54:12;;;;;;;7.37;3.40;;;;;;;;;;5089278;28;20285;-62
2021/12/26 07:56:38;;;;;;;5.83;2.83;;;;;;;;;;5089184;28;20282;-62
2021/12/26 07:59:04;;;;;;;6.87;3.23;;;;;;;;;;5070329;28;20318;-62
2021/12/26 08:01:30;;;;;;;6.67;3.37;;;;;;;;;;5054326;28;20783;-62
2021/12/26 08:03:57;;;;;;;6.87;4.07;;;;;;;;;;5089425;28;20289;-62
2021/12/26 08:06:23;;;;;;;7.67;4.10;;;;;;;;;;5089448;28;20286;-63
2021/12/26 08:08:50;;;;;;;14.40;6.00;;;;;;;;;;5088103;28;20298;-63
2021/12/26 08:11:16;;;;;;;14.57;6.07;;;;;;;;;;5088857;28;20282;-63
2021/12/26 08:13:43;;;;;;;6.53;4.27;;;;;;;;;;5089158;28;20279;-62
2021/12/26 08:16:09;;;;;;;8.60;4.03;;;;;;;;;;5089328;28;20282;-62
2021/12/26 08:18:35;;;;;;;7.30;4.13;;;;;;;;;;5088350;28;20306;-62
2021/12/26 08:21:01;;;;;;;6.40;4.07;;;;;;;;;;5070830;28;20282;-63
2021/12/26 08:23:27;;;;;;;9.27;3.73;;;;;;;;;;5089238;28;20412;-62
2021/12/26 08:25:54;;;;;;;11.60;4.77;;;;;;;;;;5088880;28;20349;-63
2021/12/26 08:28:21;;;;;;;11.73;4.20;;;;;;;;;;5088867;28;20286;-62
2021/12/26 08:30:47;;;;;;;8.23;4.47;;;;;;;;;;5087695;28;20843;-63
2021/12/26 08:33:13;;;;;;;6.80;3.80;;;;;;;;;;5070862;28;20274;-62
2021/12/26 08:35:41;;;;;;;6.60;3.43;;;;;;;;;;5089710;28;20317;-62
2021/12/26 08:38:07;;;;;;;7.33;3.50;;;;;;;;;;5092560;28;20282;-63
2021/12/26 08:40:33;;;;;;;13.00;4.50;;;;;;;;;;5091672;28;20668;-63
2021/12/26 08:42:59;;;;;;;8.70;3.70;;;;;;;;;;5092485;28;20288;-62
2021/12/26 08:45:25;;;;;;;7.13;3.63;;;;;;;;;;5092731;28;20278;-62
2021/12/26 08:47:52;;;;;;;8.73;3.20;;;;;;;;;;5092692;28;20358;-62
2021/12/26 08:50:20;;;;;;;10.17;3.13;;;;;;;;;;5091804;28;20290;-62
2021/12/26 08:52:46;;;;;;;6.27;3.33;;;;;;;;;;5092173;28;20282;-63
2021/12/26 08:55:12;;;;;;;8.77;4.53;;;;;;;;;;5092514;28;20316;-62
2021/12/26 08:57:38;;;;;;;6.43;3.60;;;;;;;;;;5092132;28;20278;-62
2021/12/26 09:00:06;;;;;;;6.73;4.03;;;;;;;;;;5073894;28;20310;-63
2021/12/26 09:02:32;;;;;;;9.07;4.03;;;;;;;;;;5092263;28;20286;-63
2021/12/26 09:04:58;;;;;;;6.20;3.50;;;;;;;;;;5073743;28;20293;-62
2021/12/26 09:07:24;;;;;;;7.30;3.40;;;;;;;;;;5092260;28;20051;-62
2021/12/26 09:09:50;;;;;;;8.40;3.17;;;;;;;;;;5092246;28;20290;-62
2021/12/26 09:12:16;;;;;;;7.27;4.00;;;;;;;;;;5092098;28;20282;-62
2021/12/26 09:14:42;;;;;;;6.33;3.27;;;;;;;;;;5091831;28;20342;-63
2021/12/26 09:17:09;;;;;;;6.90;3.67;;;;;;;;;;5092057;28;20297;-62
2021/12/26 09:19:35;;;;;;;6.53;3.67;;;;;;;;;;5092024;28;20410;-62
2021/12/26 09:22:03;;;;;;;10.13;3.50;;;;;;;;;;5092220;28;20791;-62
2021/12/26 09:24:29;;;;;;;6.80;3.40;;;;;;;;;;5091840;28;20325;-63
2021/12/26 09:26:56;;;;;;;7.43;3.97;;;;;;;;;;5091523;28;20281;-63
2021/12/26 09:29:22;;;;;;;6.23;2.97;;;;;;;;;;5088279;28;20287;-62
2021/12/26 09:31:48;;;;;;;6.20;2.97;;;;;;;;;;5091311;28;20306;-62
2021/12/26 09:34:15;;;;;;;5.30;3.60;;;;;;;;;;5056824;28;20285;-63
2021/12/26 09:36:41;;;;;;;6.80;3.37;;;;;;;;;;5091606;28;20282;-63
2021/12/26 09:39:07;;;;;;;6.27;3.40;;;;;;;;;;5091325;28;21037;-62
2021/12/26 09:41:33;;;;;;;5.57;3.20;;;;;;;;;;5071625;28;20348;-63
2021/12/26 09:43:59;;;;;;;12.93;3.87;;;;;;;;;;5091298;28;20289;-63
2021/12/26 09:46:30;;;;;;;7.10;3.73;;;;;;;;;;5091628;28;20357;-63
2021/12/26 09:48:56;;;;;;;8.53;3.30;;;;;;;;;;5090916;28;20285;-63
2021/12/26 09:51:22;;;;;;;7.17;3.53;;;;;;;;;;5089449;28;20278;-63
2021/12/26 09:53:48;;;;;;;14.77;7.03;;;;;;;;;;5070881;28;20290;-63
2021/12/26 09:56:14;;;;;;;11.53;5.70;;;;;;;;;;5071174;28;20044;-63
2021/12/26 09:58:59;;;;;;;4.97;3.20;;;;;;;;;;5070860;28;21795;-63
2021/12/26 10:01:34;;;;;;;8.13;3.63;;;;;;;;;;5070591;28;20800;-63
2021/12/26 10:04:02;;;;;;;8.53;3.90;;;;;;;;;;5070839;28;20420;-63
2021/12/26 10:06:31;;;;;;;6.67;3.20;;;;;;;;;;5075329;28;20290;-64
2021/12/26 10:09:02;;;;;;;6.27;3.60;;;;;;;;;;5090913;28;20288;-63
2021/12/26 10:11:30;;;;;;;6.63;2.97;;;;;;;;;;5091030;28;20286;-63
2021/12/26 10:13:57;;;;;;;7.80;4.07;;;;;;;;;;5090673;28;20286;-63
2021/12/26 10:16:25;;;;;;;6.27;3.63;;;;;;;;;;5090924;28;20643;-63
2021/12/26 10:18:51;;;;;;;7.13;4.10;;;;;;;;;;5090468;28;20291;-64
2021/12/26 10:21:31;;;;;;;9.50;3.70;;;;;;;;;;5090381;28;20290;-64
2021/12/26 10:24:03;;;;;;;6.87;3.27;;;;;;;;;;5072747;28;20305;-64
2021/12/26 10:26:31;;;;;;;7.37;3.20;;;;;;;;;;5090672;28;20365;-63
2021/12/26 10:29:07;;;;;;;6.57;3.70;;;;;;;;;;5090481;28;20326;-64
2021/12/26 10:31:33;;;;;;;5.27;3.20;;;;;;;;;;5090624;28;20294;-64
2021/12/26 10:33:59;;;;;;;6.93;2.73;;;;;;;;;;5090264;28;20282;-64
2021/12/26 10:36:27;;;;;;;7.97;3.67;;;;;;;;;;5072462;28;20321;-64
2021/12/26 10:39:08;;;;;;;5.77;3.67;;;;;;;;;;5090178;28;20310;-64
2021/12/26 10:41:40;;;;;;;5.73;3.33;;;;;;;;;;5090278;28;20293;-64
2021/12/26 10:44:05;;;;;;;5.03;3.87;;;;;;;;;;5090117;28;20788;-64
2021/12/26 10:46:31;;;;;;;7.60;3.27;;;;;;;;;;5089862;28;20274;-65
2021/12/26 10:49:17;;;;;;;7.27;3.77;;;;;;;;;;5090149;28;20097;-64
2021/12/26 10:51:43;;;;;;;7.13;4.63;;;;;;;;;;5090065;28;20093;-64
2021/12/26 10:54:16;;;;;;;11.03;5.30;;;;;;;;;;5089813;28;20281;-65
2021/12/26 10:56:42;;;;;;;10.23;9.30;;;;;;;;;;5090279;28;20055;-65
2021/12/26 10:59:18;;;;;;;12.93;12.03;;;;;;;;;;5071107;28;20309;-64
2021/12/26 11:01:44;;;;;;;26.63;25.23;;;;;;;;;;5090111;28;20290;-64
2021/12/26 11:04:11;;;;;;;17.30;16.10;;;;;;;;;;5072167;28;20285;-65
2021/12/26 11:06:57;;;;;;;8.03;5.07;;;;;;;;;;5072067;28;20282;-65
2021/12/26 11:09:24;;;;;;;10.57;5.13;;;;;;;;;;5087176;28;20385;-65
2021/12/26 11:12:00;;;;;;;6.63;4.63;;;;;;;;;;5069725;28;20287;-64
2021/12/26 11:14:26;;;;;;;9.30;4.60;;;;;;;;;;5069425;28;20283;-65
2021/12/26 11:16:52;;;;;;;6.50;4.50;;;;;;;;;;5069570;28;20362;-65
2021/12/26 11:19:37;;;;;;;7.43;4.93;;;;;;;;;;5087807;28;20133;-65
2021/12/26 11:22:03;;;;;;;7.13;4.50;;;;;;;;;;5054784;28;20289;-65
2021/12/26 11:24:29;;;;;;;10.33;5.47;;;;;;;;;;5089716;28;20412;-65
2021/12/26 11:26:55;;;;;;;8.07;5.60;;;;;;;;;;5089585;28;20282;-65
2021/12/26 11:29:21;;;;;;;13.43;7.93;;;;;;;;;;5070968;28;20290;-64
2021/12/26 11:31:50;;;;;;;12.13;7.97;;;;;;;;;;5089723;28;20105;-65
2021/12/26 11:34:16;;;;;;;8.00;5.57;;;;;;;;;;5089568;28;20051;-64
2021/12/26 11:36:43;;;;;;;9.87;5.70;;;;;;;;;;5089509;28;20310;-65
2021/12/26 11:39:09;;;;;;;7.50;5.10;;;;;;;;;;5089084;28;20804;-65
2021/12/26 11:41:38;;;;;;;8.70;4.90;;;;;;;;;;5071518;28;20296;-65
2021/12/26 11:44:04;;;;;;;8.63;5.57;;;;;;;;;;5089450;28;20286;-65
2021/12/26 11:46:46;;;;;;;6.83;4.27;;;;;;;;;;5071382;28;20325;-66
2021/12/26 11:49:19;;;;;;;9.43;4.30;;;;;;;;;;5088739;28;20044;-65
2021/12/26 11:51:48;;;;;;;9.63;5.15;;;;;;;;;;5089324;28;20373;-65
2021/12/26 11:54:17;;;;;;;7.77;4.37;;;;;;;;;;5071040;28;20048;-66
2021/12/26 11:56:43;;;;;;;9.60;5.23;;;;;;;;;;5071207;28;20048;-65
2021/12/26 11:59:09;;;;;;;8.60;5.10;;;;;;;;;;5089313;28;20067;-65
2021/12/26 12:01:35;;;;;;;7.60;4.57;;;;;;;;;;5089407;28;20048;-66
2021/12/26 12:04:18;;;;;;;8.70;4.43;;;;;;;;;;5088277;28;20036;-66
2021/12/26 12:06:46;;;;;;;8.30;4.60;;;;;;;;;;5089248;28;20286;-65
2021/12/26 12:09:30;;;;;;;6.63;4.43;;;;;;;;;;5088881;28;20294;-65
2021/12/26 12:11:59;;;;;;;8.13;5.27;;;;;;;;;;5074392;28;20117;-66
2021/12/26 12:14:43;;;;;;;7.70;4.90;;;;;;;;;;5093126;28;20039;-65
2021/12/26 12:17:13;;;;;;;7.50;5.40;;;;;;;;;;5074492;28;20798;-66
2021/12/26 12:19:59;;;;;;;7.43;4.83;;;;;;;;;;5075231;28;21020;-66
2021/12/26 12:22:25;;;;;;;7.57;4.87;;;;;;;;;;5074617;28;20101;-66
2021/12/26 12:24:52;;;;;;;7.60;4.70;;;;;;;;;;5091075;28;20070;-66
2021/12/26 12:27:20;;;;;;;7.23;4.53;;;;;;;;;;5092996;28;20127;-66
2021/12/26 12:29:50;;;;;;;8.43;4.47;;;;;;;;;;5092963;28;20282;-66
2021/12/26 12:32:18;;;;;;;9.03;5.07;;;;;;;;;;5092337;28;20048;-65
2021/12/26 12:34:51;;;;;;;8.73;4.80;;;;;;;;;;5092812;28;20361;-66
2021/12/26 12:37:46;;;;;;;7.87;4.33;;;;;;;;;;5092742;28;20051;-66
2021/12/26 12:40:15;;;;;;;7.40;4.33;;;;;;;;;;5075241;28;20051;-65
2021/12/26 12:42:43;;;;;;;6.83;4.30;;;;;;;;;;5073404;28;20052;-65
2021/12/26 12:45:10;;;;;;;6.83;4.20;;;;;;;;;;5074448;28;20040;-66
2021/12/26 12:47:36;;;;;;;8.93;4.40;;;;;;;;;;5092717;28;20328;-65
2021/12/26 12:50:03;;;;;;;7.67;5.10;;;;;;;;;;5092316;28;20366;-65
2021/12/26 12:52:51;;;;;;;6.07;3.80;;;;;;;;;;5074173;28;20050;-66
2021/12/26 12:55:40;;;;;;;8.63;4.47;;;;;;;;;;5092309;28;20457;-66
2021/12/26 12:58:19;;;;;;;6.27;4.20;;;;;;;;;;5063255;28;20397;-66
2021/12/26 13:00:45;;;;;;;8.23;4.57;;;;;;;;;;5092321;28;20485;-66
2021/12/26 13:03:14;;;;;;;6.17;4.27;;;;;;;;;;5092268;28;20464;-66
2021/12/26 13:05:40;;;;;;;8.03;4.20;;;;;;;;;;5092398;28;20478;-65
2021/12/26 13:08:10;;;;;;;6.83;4.47;;;;;;;;;;5073629;28;20134;-66
2021/12/26 13:10:37;;;;;;;8.87;5.30;;;;;;;;;;5092047;28;20051;-66
2021/12/26 13:13:23;;;;;;;7.43;4.67;;;;;;;;;;5091979;28;20320;-66
2021/12/26 13:15:55;;;;;;;7.63;4.83;;;;;;;;;;5092035;28;20078;-66
2021/12/26 13:18:22;;;;;;;7.17;4.20;;;;;;;;;;5092164;28;20059;-66
2021/12/26 13:21:09;;;;;;;6.13;4.10;;;;;;;;;;5091452;28;20509;-66
2021/12/26 13:23:36;;;;;;;6.27;4.50;;;;;;;;;;5071675;28;20044;-66
2021/12/26 13:26:04;;;;;;;8.60;4.70;;;;;;;;;;5073779;28;20488;-66
2021/12/26 13:28:31;;;;;;;8.53;4.90;;;;;;;;;;5091777;28;20131;-66
2021/12/26 13:30:58;;;;;;;7.17;4.20;;;;;;;;;;5073426;28;20101;-66
2021/12/26 13:33:32;;;;;;;8.83;5.70;;;;;;;;;;5072547;28;20078;-66
2021/12/26 13:35:58;;;;;;;;;;;;;;;;;;5092141;28;20148;-65
2021/12/26 13:38:24;;;;;;;8.80;5.13;;;;;;;;;;5073708;28;19924;-66
2021/12/26 13:40:54;;;;;;;10.27;6.40;;;;;;;;;;5091496;28;20126;-65
2021/12/26 13:43:24;;;;;;;7.83;5.30;;;;;;;;;;5090389;28;20122;-66
2021/12/26 13:45:52;;;;;;;8.80;5.37;;;;;;;;;;5091548;28;20498;-65
2021/12/26 13:48:28;;;;;;;8.13;4.77;;;;;;;;;;5091459;28;20048;-65
2021/12/26 13:50:55;;;;;;;7.73;4.73;;;;;;;;;;5091721;28;20052;-66
2021/12/26 13:53:21;;;;;;;7.63;4.67;;;;;;;;;;5080388;28;20052;-66
2021/12/26 13:55:52;;;;;;;7.37;4.90;;;;;;;;;;5071900;28;20093;-66
2021/12/26 13:58:18;;;;;;;8.97;4.50;;;;;;;;;;5072499;28;20565;-66
2021/12/26 14:00:52;;;;;;;7.90;4.67;;;;;;;;;;5091268;28;20044;-66
2021/12/26 14:03:18;;;;;;;7.43;4.88;;;;;;;;;;5091236;28;20501;-65
2021/12/26 14:05:44;;;;;;;8.10;5.23;;;;;;;;;;5090983;28;20047;-65
2021/12/26 14:08:21;;;;;;;7.57;4.77;;;;;;;;;;5090228;28;20431;-65
2021/12/26 14:11:20;;;;;;;8.17;5.00;;;;;;;;;;5072644;28;20413;-65
2021/12/26 14:13:51;;;;;;;9.33;5.90;;;;;;;;;;5046099;28;20103;-65
2021/12/26 14:16:24;;;;;;;7.23;4.70;;;;;;;;;;5090340;28;20051;-66
2021/12/26 14:18:50;;;;;;;11.63;7.70;;;;;;;;;;5089842;28;20059;-66
2021/12/26 14:21:18;;;;;;;8.17;5.23;;;;;;;;;;5072914;28;20056;-66
2021/12/26 14:23:48;;;;;;;10.03;6.40;;;;;;;;;;5090114;28;20131;-65
2021/12/26 14:26:14;;;;;;;10.20;5.20;;;;;;;;;;5090758;28;20339;-65
2021/12/26 14:28:45;;;;;;;7.73;5.40;;;;;;;;;;5089836;28;20043;-65
2021/12/26 14:31:26;;;;;;;8.70;5.47;;;;;;;;;;5090744;28;20067;-65
2021/12/26 14:33:52;;;;;;;9.03;6.63;;;;;;;;;;5089958;28;20100;-65
2021/12/26 14:36:19;;;;;;;9.63;5.03;;;;;;;;;;5090589;28;20286;-65
2021/12/26 14:39:14;;;;;;;9.17;5.43;;;;;;;;;;5072315;28;20753;-65
2021/12/26 14:41:42;;;;;;;9.03;5.47;;;;;;;;;;5055511;28;20105;-65
2021/12/26 14:44:10;;;;;;;10.33;6.00;;;;;;;;;;5090294;28;20377;-65
2021/12/26 14:46:36;;;;;;;9.47;5.60;;;;;;;;;;5072110;28;20295;-65
2021/12/26 14:49:10;;;;;;;9.63;6.37;;;;;;;;;;5089267;28;20047;-66
2021/12/26 14:51:36;;;;;;;;;;;;;;;;;;5090805;28;20044;-65